Delta Virtual Airport Information Service

Ashgabat International Airport

ICAO: UTAA Country: Turkmenistan
Latitude: 37.9868 Longitude: 58.361
Latest Arrival : DAC590 (KOAK-UTAA) Latest Departure : CLX7962 (A) (UTAA-RCTP)


WX CaptureLIVE
Data provided by noaa.gov | Fetched at 03:46:47

METAR : UTAA 030900Z 32012KT 9000 -RA OVC011 06/05 Q1026 R88/290055 NOSIG

TAF : UTAA 030445Z 0305/0406 34016KT 5000 -RA BKN010 SCT020CB TEMPO 0305/0312 30018G28KT 2000 SHRA OVC005 BECMG 0312/0314 27014KT 3000 -SHRA OVC008 TEMPO 0318/0403 2000 RA BR OVC003


Runway Data for UTAA
Data provided by openaviationdata.com

Runway ID Mag Var Hdg Length Elevation Surface ILS Freq ILS Id ILS Slope
11 4 106° 2953 ft 692 ft Asphalt -- -- --
12L 4 115° 12178 ft 692 ft Concrete -- -- --
12R 4 115° 9910 ft 692 ft Concrete -- -- --
12C 4 115° 5906 ft 692 ft Grass -- -- --
29 4 286° 2953 ft 692 ft Asphalt -- -- --
30L 4 295° 9910 ft 692 ft Concrete -- -- --
30R 4 295° 12178 ft 692 ft Concrete -- -- --
30C 4 295° 5906 ft 692 ft Grass -- -- --

Ashgabat International Airport, Turkmenistan
Use only for reference purposes



Not for navigational purposes.